createdAt,value
2022-10-01T11:19:11.575Z,3.67
2022-10-01T11:22:03.234Z,3.34
2022-10-01T11:24:37.107Z,3.39
2022-10-01T11:27:04.755Z,3.18
2022-10-01T11:29:38.826Z,3.19
2022-10-01T11:32:29.980Z,3.96
2022-10-01T11:35:10.112Z,3.40
2022-10-01T11:37:41.555Z,3.51
2022-10-01T11:40:27.502Z,3.45
2022-10-01T11:43:03.285Z,3.61
2022-10-01T11:45:44.016Z,3.39
2022-10-01T11:48:26.534Z,3.49
2022-10-01T11:51:01.340Z,3.88
2022-10-01T11:53:48.626Z,3.50
2022-10-01T11:56:41.436Z,3.19
2022-10-01T11:59:17.478Z,3.55
2022-10-01T12:02:01.218Z,3.31
2022-10-01T12:04:32.533Z,3.52
2022-10-01T12:07:23.454Z,3.43
2022-10-01T12:09:51.093Z,3.36
2022-10-01T12:12:23.978Z,2.88
2022-10-01T12:15:06.963Z,3.26
2022-10-01T12:17:52.887Z,3.21
2022-10-01T12:20:46.827Z,3.55
2022-10-01T12:23:32.252Z,3.26
2022-10-01T12:26:07.788Z,2.98
2022-10-01T12:28:59.301Z,2.95
2022-10-01T12:31:39.965Z,2.82
2022-10-01T12:34:39.171Z,3.04
2022-10-01T12:37:24.856Z,3.14
2022-10-01T12:40:26.522Z,2.86
2022-10-01T12:42:59.876Z,2.94
2022-10-01T12:45:48.053Z,2.91
2022-10-01T12:48:29.251Z,2.87
2022-10-01T12:51:39.099Z,3.20
2022-10-01T12:54:34.236Z,2.85
2022-10-01T12:57:14.117Z,3.15
2022-10-01T13:00:22.493Z,3.10
2022-10-01T13:03:09.021Z,3.10
2022-10-01T13:05:40.146Z,3.42
2022-10-01T13:08:16.418Z,3.25
2022-10-01T13:10:57.243Z,3.22
2022-10-01T13:13:34.797Z,2.96
2022-10-01T13:16:37.625Z,3.21
2022-10-01T13:19:24.794Z,3.10
2022-10-01T13:21:53.492Z,3.00
2022-10-01T13:24:34.877Z,3.25
2022-10-01T13:27:11.390Z,3.46
2022-10-01T13:29:55.026Z,3.38
2022-10-01T13:32:28.141Z,3.60
2022-10-01T13:34:57.433Z,3.35
2022-10-01T13:37:36.154Z,3.20
2022-10-01T13:40:05.964Z,3.22
2022-10-01T13:42:48.665Z,3.27
2022-10-01T13:45:37.497Z,3.22
2022-10-01T13:48:32.520Z,3.00
2022-10-01T13:51:13.282Z,3.10
2022-10-01T13:53:45.056Z,3.30
2022-10-01T13:56:28.185Z,3.06
2022-10-01T13:58:56.020Z,3.36
2022-10-01T14:01:24.476Z,3.05
2022-10-01T14:04:07.092Z,3.18
2022-10-01T14:06:42.686Z,2.94
2022-10-01T14:09:19.394Z,3.17
2022-10-01T14:12:11.081Z,3.19
2022-10-01T14:15:13.951Z,2.77
2022-10-01T14:17:48.894Z,3.05
2022-10-01T14:20:27.959Z,2.65
2022-10-01T14:23:20.094Z,2.98
2022-10-01T14:25:59.027Z,3.47
2022-10-01T14:28:35.033Z,3.38
2022-10-01T14:31:28.291Z,3.54
2022-10-01T14:34:23.658Z,3.40
2022-10-01T14:36:54.340Z,3.44
2022-10-01T14:39:28.304Z,3.50
2022-10-01T14:41:58.458Z,3.22
2022-10-01T14:44:47.273Z,3.33
2022-10-01T14:47:23.619Z,3.15
2022-10-01T14:49:51.989Z,3.33
2022-10-01T14:52:23.912Z,3.14
2022-10-01T14:55:08.104Z,3.59
2022-10-01T14:57:42.816Z,3.09
2022-10-01T15:00:21.023Z,3.11
2022-10-01T15:02:52.185Z,3.09
2022-10-01T15:05:27.620Z,3.14
2022-10-01T15:07:55.371Z,2.69
2022-10-01T15:10:27.982Z,2.71
2022-10-01T15:12:56.712Z,2.78
2022-10-01T15:15:40.756Z,2.65
2022-10-01T15:18:14.641Z,2.87
2022-10-01T15:20:58.871Z,2.94
2022-10-01T15:23:33.009Z,2.91
2022-10-01T15:26:05.964Z,2.60
2022-10-01T15:28:38.639Z,2.79
2022-10-01T15:31:08.179Z,2.63
2022-10-01T15:33:41.473Z,3.06
2022-10-01T15:36:19.880Z,2.67
2022-10-01T15:38:50.809Z,2.94
2022-10-01T15:41:32.348Z,3.21
2022-10-01T15:44:04.956Z,2.75
2022-10-01T15:46:35.696Z,2.82
2022-10-01T15:49:18.664Z,3.07
2022-10-01T15:52:23.426Z,3.08
2022-10-01T15:55:00.230Z,3.15
2022-10-01T15:57:33.494Z,3.03
2022-10-01T16:00:01.520Z,2.67
2022-10-01T16:02:32.879Z,3.08
2022-10-01T16:05:06.753Z,2.98
2022-10-01T16:07:35.843Z,2.67
2022-10-01T16:10:34.379Z,2.81
2022-10-01T16:13:36.320Z,2.96
2022-10-01T16:16:24.920Z,3.20
2022-10-01T16:18:56.670Z,3.35
2022-10-01T16:21:26.916Z,3.01
2022-10-01T16:23:56.642Z,2.69
2022-10-01T16:26:38.185Z,3.02
2022-10-01T16:29:24.423Z,2.89
2022-10-01T16:31:53.574Z,2.86
2022-10-01T16:34:21.911Z,3.14
2022-10-01T16:36:50.367Z,3.42
2022-10-01T16:39:18.084Z,3.01
2022-10-01T16:42:12.104Z,3.01
2022-10-01T16:44:40.550Z,3.31
2022-10-01T16:47:14.668Z,3.51
2022-10-01T16:49:42.665Z,3.70
2022-10-01T16:52:16.477Z,3.41
2022-10-01T16:54:44.890Z,3.69
2022-10-01T16:57:12.919Z,3.74
2022-10-01T16:59:40.550Z,3.41
2022-10-01T17:02:13.681Z,3.85
2022-10-01T17:04:42.003Z,3.72
2022-10-01T17:07:09.473Z,3.63
2022-10-01T17:09:37.316Z,3.55
2022-10-01T17:12:04.994Z,3.28
2022-10-01T17:14:32.546Z,3.87
2022-10-01T17:17:00.201Z,3.40
2022-10-01T17:19:28.071Z,3.75
2022-10-01T17:21:56.051Z,3.33
2022-10-01T17:24:24.235Z,3.64
2022-10-01T17:26:52.697Z,3.41
2022-10-01T17:29:20.211Z,3.60
2022-10-01T17:31:53.459Z,3.75
2022-10-01T17:34:21.923Z,3.68
2022-10-01T17:36:49.695Z,3.67
2022-10-01T17:39:17.462Z,4.13
2022-10-01T17:41:45.008Z,3.82
2022-10-01T17:44:12.669Z,4.73
2022-10-01T17:46:40.367Z,4.04
2022-10-01T17:49:08.816Z,4.28
2022-10-01T17:51:39.506Z,5.08
2022-10-01T17:54:07.158Z,5.02
2022-10-01T17:56:37.438Z,5.50
2022-10-01T17:59:06.170Z,5.62
2022-10-01T18:01:34.830Z,5.42
2022-10-01T18:04:03.966Z,4.71
2022-10-01T18:06:34.005Z,4.43
2022-10-01T18:09:02.456Z,4.52
2022-10-01T18:11:30.216Z,4.72
2022-10-01T18:13:58.122Z,6.21
2022-10-01T18:16:27.425Z,6.43
2022-10-01T18:21:48.593Z,7.88
2022-10-01T18:24:17.424Z,8.29
2022-10-01T18:26:45.915Z,10.52
2022-10-01T18:29:22.065Z,12.11
2022-10-01T18:32:04.861Z,10.46
2022-10-01T18:34:55.797Z,9.72
2022-10-01T18:37:27.528Z,12.05
2022-10-01T18:40:10.196Z,13.24
2022-10-01T18:42:49.349Z,9.33
2022-10-01T18:45:27.343Z,7.86
2022-10-01T18:48:30.149Z,6.35
2022-10-01T18:51:15.851Z,6.06
2022-10-01T18:54:15.750Z,6.00
2022-10-01T18:57:01.191Z,4.92
2022-10-01T18:59:43.006Z,4.95
2022-10-01T19:02:45.841Z,5.08
2022-10-01T19:05:37.150Z,5.72
2022-10-01T19:08:29.371Z,5.89
2022-10-01T19:11:21.889Z,5.36
2022-10-01T19:13:55.794Z,4.64
2022-10-01T19:16:47.899Z,5.40
2022-10-01T19:19:38.341Z,6.81
2022-10-01T19:22:41.675Z,6.19
2022-10-01T19:25:19.199Z,5.09
2022-10-01T19:27:58.527Z,5.15
2022-10-01T19:30:38.195Z,4.96
2022-10-01T19:33:13.995Z,4.09
2022-10-01T19:35:48.744Z,3.85
2022-10-01T19:38:37.512Z,4.13
2022-10-01T19:41:46.088Z,4.02
2022-10-01T19:44:42.410Z,4.40
2022-10-01T19:47:37.733Z,4.42
2022-10-01T19:50:20.333Z,3.75
2022-10-01T19:52:51.704Z,4.24
2022-10-01T19:55:22.315Z,4.55
2022-10-01T19:57:50.329Z,3.92
2022-10-01T20:00:21.928Z,4.25
2022-10-01T20:03:12.189Z,4.18
2022-10-01T20:05:50.081Z,3.92
2022-10-01T20:08:29.421Z,4.17
2022-10-01T20:11:30.360Z,3.79
2022-10-01T20:14:40.401Z,4.49
2022-10-01T20:17:40.290Z,4.19
2022-10-01T20:20:13.263Z,4.20
2022-10-01T20:23:14.823Z,4.42
2022-10-01T20:26:20.024Z,4.30
2022-10-01T20:29:32.281Z,4.34
2022-10-01T20:32:21.184Z,4.24
2022-10-01T20:35:16.200Z,3.85
2022-10-01T20:38:02.805Z,3.88
2022-10-01T20:40:43.138Z,4.13
2022-10-01T20:43:20.664Z,4.16
2022-10-01T20:45:53.996Z,4.26
2022-10-01T20:48:41.966Z,3.56
2022-10-01T20:51:19.771Z,4.06
2022-10-01T20:53:59.186Z,3.77
2022-10-01T20:56:43.492Z,4.13
2022-10-01T20:59:27.561Z,4.18
2022-10-01T21:02:05.305Z,4.02
2022-10-01T21:04:40.483Z,4.20
2022-10-01T21:07:49.678Z,4.60
2022-10-01T21:10:36.729Z,4.89
2022-10-01T21:13:44.762Z,4.92
2022-10-01T21:16:38.246Z,4.90
2022-10-01T21:19:32.245Z,4.84
2022-10-01T21:22:18.116Z,5.00
2022-10-01T21:25:10.110Z,5.54
2022-10-01T21:27:57.919Z,5.29
2022-10-01T21:30:28.542Z,5.49
2022-10-01T21:33:15.874Z,5.24
2022-10-01T21:36:06.250Z,5.84
2022-10-01T21:39:06.001Z,6.58
2022-10-01T21:42:04.993Z,5.98
2022-10-01T21:44:50.715Z,6.77
2022-10-01T21:47:34.801Z,7.16
2022-10-01T21:50:35.935Z,6.65
2022-10-01T21:53:32.579Z,6.49
2022-10-01T21:56:15.269Z,7.30
2022-10-01T21:59:07.922Z,7.30
2022-10-01T22:02:03.730Z,6.93
2022-10-01T22:04:50.760Z,7.71
2022-10-01T22:07:31.955Z,7.20
2022-10-01T22:10:05.700Z,7.37
2022-10-01T22:12:40.369Z,7.40
2022-10-01T22:15:39.934Z,7.22
2022-10-01T22:18:26.687Z,7.35
2022-10-01T22:20:59.320Z,7.61
2022-10-01T22:23:32.089Z,7.55
2022-10-01T22:26:07.921Z,6.72
2022-10-01T22:28:40.769Z,7.17
2022-10-01T22:31:19.171Z,7.08
2022-10-01T22:33:57.317Z,6.62
2022-10-01T22:36:36.954Z,7.09
2022-10-01T22:39:21.229Z,7.22
2022-10-01T22:42:03.681Z,7.17
2022-10-01T22:44:31.351Z,6.76
2022-10-01T22:47:20.743Z,6.84
2022-10-01T22:50:20.714Z,6.92
2022-10-01T22:53:13.082Z,6.48
2022-10-01T22:55:53.108Z,6.56
2022-10-01T22:58:39.527Z,6.11
2022-10-01T23:01:38.052Z,6.78
2022-10-01T23:04:30.858Z,6.66
2022-10-01T23:06:58.435Z,6.14
2022-10-01T23:09:43.882Z,6.84
2022-10-01T23:12:49.470Z,7.19
2022-10-01T23:15:45.963Z,7.28
2022-10-01T23:18:28.419Z,7.65
2022-10-01T23:21:26.317Z,7.26
2022-10-01T23:24:01.887Z,7.35
2022-10-01T23:26:38.903Z,7.63
2022-10-01T23:29:44.134Z,7.18
2022-10-01T23:32:49.255Z,7.38
2022-10-01T23:35:21.334Z,8.11
2022-10-01T23:38:29.525Z,8.76
2022-10-01T23:41:09.880Z,8.18
2022-10-01T23:43:48.338Z,8.59
2022-10-01T23:46:33.726Z,7.88
2022-10-01T23:49:19.104Z,8.38
2022-10-01T23:52:00.994Z,7.49
2022-10-01T23:55:36.420Z,8.05
2022-10-01T23:58:06.700Z,8.42
